Lincoln City, Indiana
Current Conditions -  °F | °C
As of 9:15 PM on Thursday 18 Dec 2014 (Local Time) from KHNB Reporting Station
Overcast Overcast  
Wind Chill: 30°   Ceiling: 5000
Heat Index: 30°   Visibility: 7mi
Dew Point: 23°   Wind: 3mph
Humidity: 75%   Direction: 20°NNE
Pressure: 30.27"   Gusts: NA
Location:  38.12°N, 87°W
Report Text: KHNB 190315Z AUTO 02003KT 7SM BKN050 OVC080 M01/M05 A3027 RMK AO1
Loading
Personal Weather Stations






























Interactive Weather Map New forecast layout! Learn more

10-Day Weather Forecast

Advertisements
Track Severe Weather on mobile